Alabama, New York
Current Conditions -  °F | °C
As of 2:54 AM on Saturday 20 Dec 2014 (Local Time) from KBUF Reporting Station
Few Clouds Few Clouds  
Wind Chill: -3°   Ceiling: Unl
Heat Index: -3°   Visibility: 10mi
Dew Point: -7°   Wind: 0mph
Humidity: 78%   Direction: NA
Pressure: 30.22"   Gusts: NA
Location:  43.1°N, 78.39°W
Report Text: KBUF 200754Z 00000KT 10SM FEW020 M03/M07 A3022 RMK AO2 SLP242 T10331067
Loading
Personal Weather Stations






























Interactive Weather Map New forecast layout! Learn more

10-Day Weather Forecast

Advertisements
Track Severe Weather on mobile